createdAt,value
2019-04-20T00:00:55.060Z,5.62
2019-04-20T00:03:33.853Z,5.55
2019-04-20T00:06:01.468Z,5.55
2019-04-20T00:08:37.539Z,5.42
2019-04-20T00:11:15.650Z,5.38
2019-04-20T00:13:51.766Z,5.36
2019-04-20T00:16:14.783Z,5.29
2019-04-20T00:18:52.980Z,5.30
2019-04-20T00:21:42.708Z,5.23
2019-04-20T00:24:22.929Z,5.15
2019-04-20T00:29:41.835Z,5.14
2019-04-20T00:32:06.086Z,5.15
2019-04-20T00:34:33.317Z,5.14
2019-04-20T00:37:02.196Z,5.12
2019-04-20T00:39:34.053Z,5.13
2019-04-20T00:42:09.629Z,5.06
2019-04-20T00:44:42.308Z,5.05
2019-04-20T00:47:25.368Z,4.98
2019-04-20T00:49:57.845Z,4.90
2019-04-20T00:52:31.056Z,4.96
2019-04-20T00:54:51.501Z,4.90
2019-04-20T00:57:35.882Z,4.88
2019-04-20T01:00:16.959Z,4.88
2019-04-20T01:02:41.962Z,4.88
2019-04-20T01:05:20.313Z,4.88
2019-04-20T01:07:56.592Z,4.84
2019-04-20T01:10:30.311Z,4.75
2019-04-20T01:13:04.179Z,4.74
2019-04-20T01:15:38.618Z,4.83
2019-04-20T01:18:03.481Z,4.83
2019-04-20T01:20:34.805Z,4.72
2019-04-20T01:23:10.132Z,4.67
2019-04-20T01:25:43.338Z,4.69
2019-04-20T01:28:27.504Z,4.56
2019-04-20T01:31:00.171Z,4.56
2019-04-20T01:33:34.363Z,4.61
2019-04-20T01:36:09.097Z,4.60
2019-04-20T01:38:42.800Z,4.52
2019-04-20T01:40:59.065Z,4.50
2019-04-20T01:43:31.195Z,4.54
2019-04-20T01:46:09.178Z,4.43
2019-04-20T01:48:39.683Z,4.46
2019-04-20T01:51:18.831Z,4.48
2019-04-20T01:54:02.151Z,4.43
2019-04-20T01:56:31.646Z,4.35
2019-04-20T01:59:10.722Z,4.36
2019-04-20T02:01:45.949Z,4.34
2019-04-20T02:04:28.616Z,4.30
2019-04-20T02:06:59.975Z,4.15
2019-04-20T02:09:31.147Z,4.16
2019-04-20T02:12:08.461Z,4.06
2019-04-20T02:14:42.691Z,4.06
2019-04-20T02:17:18.053Z,4.17
2019-04-20T02:19:59.838Z,4.13
2019-04-20T02:22:33.017Z,4.09
2019-04-20T02:24:47.117Z,4.12
2019-04-20T02:27:19.744Z,4.11
2019-04-20T02:30:22.073Z,4.18
2019-04-20T02:33:10.061Z,4.14
2019-04-20T02:35:42.551Z,4.22
2019-04-20T02:38:36.141Z,4.23
2019-04-20T02:40:52.635Z,4.16
2019-04-20T02:43:33.367Z,4.15
2019-04-20T02:48:21.682Z,4.06
2019-04-20T02:50:59.714Z,4.14
2019-04-20T02:56:04.723Z,4.42
2019-04-20T02:58:42.229Z,4.58
2019-04-20T03:01:05.070Z,4.97
2019-04-20T03:03:22.786Z,4.78
2019-04-20T03:06:04.623Z,4.88
2019-04-20T03:08:40.584Z,4.85
2019-04-20T03:11:14.659Z,4.83
2019-04-20T03:13:41.383Z,5.20
2019-04-20T03:16:16.517Z,5.61
2019-04-20T03:18:51.220Z,5.97
2019-04-20T03:21:24.837Z,6.25
2019-04-20T03:24:06.786Z,7.07
2019-04-20T03:26:42.664Z,6.72
2019-04-20T03:29:13.082Z,8.03
2019-04-20T03:37:21.894Z,7.32
2019-04-20T03:39:40.774Z,6.60
2019-04-20T03:41:59.326Z,7.90
2019-04-20T03:44:34.185Z,6.57
2019-04-20T03:47:08.869Z,8.09
2019-04-20T03:49:59.531Z,6.27
2019-04-20T03:52:32.836Z,6.27
2019-04-20T03:55:14.873Z,7.68
2019-04-20T03:57:51.244Z,5.95
2019-04-20T04:00:21.969Z,6.58
2019-04-20T04:03:12.380Z,6.20
2019-04-20T04:05:31.293Z,5.97
2019-04-20T04:08:00.115Z,6.18
2019-04-20T04:10:33.484Z,6.08
2019-04-20T04:13:15.100Z,6.16
2019-04-20T04:15:52.031Z,6.30
2019-04-20T04:18:28.121Z,5.90
2019-04-20T04:21:03.847Z,6.62
2019-04-20T04:23:51.033Z,6.62
2019-04-20T04:26:26.438Z,6.16
2019-04-20T04:29:00.650Z,6.59
2019-04-20T04:31:33.275Z,6.78
2019-04-20T04:34:04.908Z,6.74
2019-04-20T04:36:38.720Z,6.82
2019-04-20T04:39:15.223Z,6.77
2019-04-20T04:41:39.801Z,6.89
2019-04-20T04:44:17.439Z,6.69
2019-04-20T04:46:33.877Z,6.79
2019-04-20T04:49:14.708Z,7.03
2019-04-20T04:51:46.804Z,6.99
2019-04-20T04:54:22.193Z,6.92
2019-04-20T05:00:26.567Z,7.33
2019-04-20T05:03:02.002Z,7.18
2019-04-20T05:05:49.149Z,7.18
2019-04-20T05:08:12.988Z,7.64
2019-04-20T05:10:37.368Z,7.29
2019-04-20T05:13:09.156Z,7.03
2019-04-20T05:15:57.065Z,7.70
2019-04-20T05:18:41.523Z,7.70
2019-04-20T05:21:13.107Z,7.53
2019-04-20T05:23:35.163Z,7.20
2019-04-20T05:26:27.989Z,7.41
2019-04-20T05:28:56.901Z,7.54
2019-04-20T05:31:23.223Z,7.88
2019-04-20T05:34:14.393Z,8.07
2019-04-20T05:36:46.243Z,7.84
2019-04-20T05:39:29.554Z,8.05
2019-04-20T05:41:45.766Z,8.28
2019-04-20T05:44:22.161Z,8.16
2019-04-20T05:47:00.941Z,8.34
2019-04-20T05:49:29.740Z,8.35
2019-04-20T05:52:20.210Z,8.60
2019-04-20T05:54:39.080Z,8.77
2019-04-20T05:57:14.956Z,8.88
2019-04-20T05:59:51.812Z,9.30
2019-04-20T06:02:17.015Z,9.42
2019-04-20T06:04:59.642Z,9.21
2019-04-20T06:07:26.803Z,9.25
2019-04-20T06:09:59.846Z,9.09
2019-04-20T06:12:31.988Z,9.17
2019-04-20T06:15:04.085Z,9.27
2019-04-20T06:17:58.367Z,9.15
2019-04-20T06:20:35.834Z,9.08
2019-04-20T06:23:33.288Z,9.20
2019-04-20T06:26:33.605Z,9.45
2019-04-20T06:28:45.090Z,9.51
2019-04-20T06:31:28.470Z,9.61
2019-04-20T06:36:53.538Z,9.79
2019-04-20T06:39:30.851Z,9.76
2019-04-20T06:44:46.010Z,9.67
2019-04-20T06:47:16.214Z,9.77
2019-04-20T06:49:56.685Z,9.86
2019-04-20T06:55:00.322Z,10.00
2019-04-20T06:57:37.195Z,10.10
2019-04-20T07:00:10.190Z,9.99
2019-04-20T07:02:41.390Z,9.94
2019-04-20T07:05:13.132Z,9.81
2019-04-20T07:07:47.490Z,9.91
2019-04-20T07:10:25.258Z,10.02
2019-04-20T07:12:55.389Z,9.95
2019-04-20T07:15:29.184Z,10.15
2019-04-20T07:18:09.236Z,10.17
2019-04-20T07:20:48.540Z,10.22
2019-04-20T07:23:23.846Z,10.25
2019-04-20T07:25:52.750Z,10.39
2019-04-20T07:28:27.789Z,10.32
2019-04-20T07:30:55.266Z,10.30
2019-04-20T07:33:33.443Z,10.37
2019-04-20T07:35:55.962Z,10.21
2019-04-20T07:41:19.423Z,10.23
2019-04-20T07:43:41.992Z,10.27
2019-04-20T07:46:23.134Z,10.28
2019-04-20T07:48:48.015Z,10.43
2019-04-20T07:51:09.171Z,10.55
2019-04-20T07:53:46.364Z,10.51
2019-04-20T07:56:30.422Z,10.85
2019-04-20T07:58:49.287Z,10.80
2019-04-20T08:01:53.067Z,10.78
2019-04-20T08:04:24.465Z,10.83
2019-04-20T08:06:49.872Z,10.94
2019-04-20T08:09:25.772Z,10.91
2019-04-20T08:12:11.748Z,10.85
2019-04-20T08:14:48.085Z,10.97
2019-04-20T08:17:26.826Z,11.12
2019-04-20T08:19:47.204Z,11.06
2019-04-20T08:22:27.035Z,11.02
2019-04-20T08:24:48.653Z,10.95
2019-04-20T08:27:13.173Z,10.91
2019-04-20T08:29:59.012Z,10.98
2019-04-20T08:32:38.946Z,11.03
2019-04-20T08:35:23.161Z,11.13
2019-04-20T08:38:05.736Z,11.20
2019-04-20T08:40:20.821Z,11.07
2019-04-20T08:43:07.385Z,11.09
2019-04-20T08:45:34.903Z,11.03
2019-04-20T08:48:11.019Z,11.32
2019-04-20T08:50:34.126Z,11.27
2019-04-20T08:53:20.777Z,11.23
2019-04-20T08:55:40.112Z,11.21
2019-04-20T08:57:56.558Z,11.26
2019-04-20T09:00:35.952Z,11.08
2019-04-20T09:03:13.167Z,11.26
2019-04-20T09:05:51.210Z,11.08
2019-04-20T09:08:17.873Z,11.40
2019-04-20T09:11:02.708Z,11.37
